Croghan, New York
Current Conditions -  °F | °C
As of 8:58 PM on Monday 20 Oct 2014 (Local Time) from KGTB Reporting Station
Light Rain Light Rain  
Wind Chill: 44°   Ceiling: 4800
Heat Index: 48°   Visibility: 10mi
Dew Point: 40°   Wind: 8mph
Humidity: 76%   Direction: 140°SE
Pressure: 29.87"   Gusts: NA
Location:  43.9°N, 75.39°W
Report Text: KGTB 210058Z AUTO 14007KT 10SM -RA BKN048 09/05 A2987 RMK AO2 RAB0018E0051DZB0012E0030B0051 SLP119 P0000 T00880047
Loading
Personal Weather Stations






























Interactive Weather Map
Tropical Storm Tracking
New forecast layout! Learn more

10-Day Weather Forecast

Advertisements
Track Severe Weather on mobile